createdAt,value
2018-04-07T00:00:29.645Z,80.24
2018-04-07T00:01:30.312Z,79.96
2018-04-07T00:02:30.978Z,79.96
2018-04-07T00:03:31.646Z,79.96
2018-04-07T00:04:32.322Z,80.05
2018-04-07T00:05:32.991Z,80.24
2018-04-07T00:06:33.662Z,79.68
2018-04-07T00:07:34.330Z,80.34
2018-04-07T00:08:35.000Z,80.44
2018-04-07T00:09:35.668Z,80.05
2018-04-07T00:10:36.340Z,80.91
2018-04-07T00:11:37.006Z,80.24
2018-04-07T00:12:37.673Z,80.82
2018-04-07T00:13:38.340Z,80.91
2018-04-07T00:14:39.018Z,80.63
2018-04-07T00:15:39.685Z,81.01
2018-04-07T00:16:40.356Z,81.01
2018-04-07T00:17:41.024Z,81.20
2018-04-07T00:18:41.691Z,81.10
2018-04-07T00:19:42.360Z,81.38
2018-04-07T00:20:43.028Z,81.38
2018-04-07T00:21:43.693Z,81.48
2018-04-07T00:22:44.362Z,81.48
2018-04-07T00:23:45.034Z,82.34
2018-04-07T00:24:45.701Z,81.96
2018-04-07T00:25:46.369Z,82.15
2018-04-07T00:26:47.037Z,82.34
2018-04-07T00:27:47.705Z,81.96
2018-04-07T00:28:48.374Z,82.15
2018-04-07T00:29:49.040Z,81.96
2018-04-07T00:30:49.706Z,81.96
2018-04-07T00:31:50.375Z,81.96
2018-04-07T00:32:51.042Z,82.62
2018-04-07T00:33:51.717Z,82.43
2018-04-07T00:34:52.384Z,82.24
2018-04-07T00:35:53.051Z,82.71
2018-04-07T00:36:53.721Z,82.71
2018-04-07T00:37:54.386Z,82.71
2018-04-07T00:38:55.052Z,82.91
2018-04-07T00:39:55.720Z,83.10
2018-04-07T00:40:56.395Z,83.00
2018-04-07T00:41:57.069Z,82.62
2018-04-07T00:42:57.737Z,82.62
2018-04-07T00:43:58.414Z,82.62
2018-04-07T00:44:59.079Z,82.71
2018-04-07T00:45:59.746Z,83.10
2018-04-07T00:47:00.410Z,82.91
2018-04-07T00:48:01.081Z,83.25
2018-04-07T00:49:01.746Z,83.39
2018-04-07T00:50:02.416Z,83.39
2018-04-07T00:51:03.083Z,83.58
2018-04-07T00:52:03.751Z,83.67
2018-04-07T00:53:04.422Z,83.62
2018-04-07T00:54:05.105Z,83.91
2018-04-07T00:55:05.770Z,84.05
2018-04-07T00:56:06.437Z,83.95
2018-04-07T00:57:07.102Z,84.01
2018-04-07T00:58:07.771Z,83.86
2018-04-07T00:59:08.438Z,84.01
2018-04-07T01:00:09.104Z,84.14
2018-04-07T01:01:09.775Z,83.91
2018-04-07T01:02:10.441Z,83.86
2018-04-07T01:03:11.110Z,83.95
2018-04-07T01:04:11.785Z,83.91
2018-04-07T01:05:12.447Z,83.91
2018-04-07T01:06:13.117Z,84.39
2018-04-07T01:07:13.783Z,83.95
2018-04-07T01:08:14.450Z,84.48
2018-04-07T01:09:15.121Z,84.58
2018-04-07T01:10:15.789Z,84.58
2018-04-07T01:11:16.460Z,84.67
2018-04-07T01:12:17.129Z,84.86
2018-04-07T01:13:17.796Z,84.67
2018-04-07T01:14:18.460Z,84.58
2018-04-07T01:15:19.129Z,85.15
2018-04-07T01:16:19.795Z,85.15
2018-04-07T01:17:20.465Z,85.43
2018-04-07T01:18:21.130Z,84.95
2018-04-07T01:19:21.803Z,85.05
2018-04-07T01:20:22.469Z,85.05
2018-04-07T01:21:23.135Z,85.05
2018-04-07T01:22:23.800Z,85.15
2018-04-07T01:23:24.477Z,85.53
2018-04-07T01:24:25.146Z,85.43
2018-04-07T01:25:25.811Z,85.72
2018-04-07T01:26:26.486Z,85.72
2018-04-07T01:27:27.162Z,85.81
2018-04-07T01:28:27.831Z,85.81
2018-04-07T01:29:28.500Z,85.53
2018-04-07T01:30:29.177Z,85.62
2018-04-07T01:31:29.853Z,85.62
2018-04-07T01:32:30.520Z,85.62
2018-04-07T01:33:31.186Z,85.91
2018-04-07T01:34:31.860Z,85.43
2018-04-07T01:35:32.524Z,85.62
2018-04-07T01:36:33.194Z,86.00
2018-04-07T01:37:33.861Z,85.62
2018-04-07T01:38:34.530Z,86.19
2018-04-07T01:39:35.199Z,85.91
2018-04-07T01:40:35.867Z,86.10
2018-04-07T01:41:36.532Z,86.19
2018-04-07T01:42:37.198Z,86.38
2018-04-07T01:43:37.872Z,85.91
2018-04-07T01:44:38.534Z,86.57
2018-04-07T01:45:39.202Z,86.67
2018-04-07T01:46:39.870Z,86.47
2018-04-07T01:47:40.536Z,86.95
2018-04-07T01:48:41.201Z,86.76
2018-04-07T01:49:41.867Z,87.34
2018-04-07T01:50:42.535Z,87.52
2018-04-07T01:51:43.204Z,87.14
2018-04-07T01:52:43.874Z,86.95
2018-04-07T01:53:44.538Z,86.86
2018-04-07T01:54:45.208Z,86.95
2018-04-07T01:55:45.875Z,86.86
2018-04-07T01:56:46.543Z,87.52
2018-04-07T01:57:47.213Z,86.67
2018-04-07T01:58:47.877Z,86.67
2018-04-07T01:59:48.547Z,86.86
2018-04-07T02:00:49.219Z,86.76
2018-04-07T02:01:49.887Z,86.38
2018-04-07T02:02:50.555Z,86.67
2018-04-07T02:03:51.231Z,86.76
2018-04-07T02:04:51.900Z,87.34
2018-04-07T02:05:52.565Z,86.76
2018-04-07T02:06:53.232Z,87.05
2018-04-07T02:07:53.904Z,86.47
2018-04-07T02:08:54.572Z,87.14
2018-04-07T02:09:55.243Z,87.29
2018-04-07T02:10:55.917Z,87.34
2018-04-07T02:11:56.599Z,87.05
2018-04-07T02:12:57.268Z,87.19
2018-04-07T02:13:57.934Z,87.29
2018-04-07T02:14:58.600Z,87.14
2018-04-07T02:15:59.268Z,87.38
2018-04-07T02:16:59.935Z,87.86
2018-04-07T02:18:00.602Z,87.29
2018-04-07T02:19:01.267Z,87.34
2018-04-07T02:20:01.937Z,87.48
2018-04-07T02:21:02.602Z,87.14
2018-04-07T02:22:03.270Z,87.86
2018-04-07T02:23:03.942Z,87.86
2018-04-07T02:24:04.605Z,87.57
2018-04-07T02:25:05.276Z,87.86
2018-04-07T02:26:05.942Z,87.76
2018-04-07T02:27:06.610Z,87.38
2018-04-07T02:28:07.276Z,87.86
2018-04-07T02:29:07.944Z,87.57
2018-04-07T02:30:08.612Z,87.57
2018-04-07T02:31:09.282Z,87.48
2018-04-07T02:32:09.950Z,87.67
2018-04-07T02:33:10.617Z,88.05
2018-04-07T02:34:11.287Z,87.86
2018-04-07T02:35:11.953Z,87.86
2018-04-07T02:36:12.626Z,87.76
2018-04-07T02:37:13.291Z,87.95
2018-04-07T02:38:13.962Z,87.57
2018-04-07T02:39:14.625Z,87.67
2018-04-07T02:40:15.290Z,88.05
2018-04-07T02:41:15.957Z,87.86
2018-04-07T02:42:16.626Z,87.76
2018-04-07T02:43:17.292Z,88.05
2018-04-07T02:44:17.966Z,87.29
2018-04-07T02:45:18.626Z,88.05
2018-04-07T02:46:19.303Z,87.76
2018-04-07T02:47:19.961Z,88.15
2018-04-07T02:48:20.634Z,88.05
2018-04-07T02:49:21.302Z,88.05
2018-04-07T02:50:22.001Z,88.05
2018-04-07T02:51:22.644Z,88.05
2018-04-07T02:52:23.306Z,87.67
2018-04-07T02:53:23.976Z,87.95
2018-04-07T02:54:24.642Z,88.05
2018-04-07T02:55:25.306Z,88.05
2018-04-07T02:56:25.976Z,88.34
2018-04-07T02:57:26.643Z,88.71
2018-04-07T02:58:27.315Z,88.34
2018-04-07T02:59:27.978Z,88.71
2018-04-07T03:00:28.645Z,88.34
2018-04-07T03:01:29.308Z,88.71
2018-04-07T03:02:29.972Z,88.15
2018-04-07T03:03:30.645Z,88.71
2018-04-07T03:04:31.310Z,88.71
2018-04-07T03:05:31.974Z,88.81
2018-04-07T03:06:32.643Z,88.43
2018-04-07T03:07:33.308Z,89.28
2018-04-07T03:08:33.972Z,88.43
2018-04-07T03:09:34.648Z,89.19
2018-04-07T03:10:35.312Z,88.53
2018-04-07T03:11:35.983Z,89.28
2018-04-07T03:12:36.651Z,89.00
2018-04-07T03:13:37.316Z,89.19
2018-04-07T03:14:37.984Z,89.19
2018-04-07T03:15:38.652Z,88.71
2018-04-07T03:16:39.317Z,88.90
2018-04-07T03:17:39.981Z,88.71
2018-04-07T03:18:40.648Z,88.90
2018-04-07T03:19:41.313Z,89.09
2018-04-07T03:20:41.984Z,89.38
2018-04-07T03:21:42.646Z,89.00
2018-04-07T03:22:43.314Z,89.19
2018-04-07T03:23:43.981Z,89.47
2018-04-07T03:24:44.647Z,89.28
2018-04-07T03:25:45.318Z,88.90
2018-04-07T03:26:45.985Z,89.86
2018-04-07T03:27:46.657Z,89.95
2018-04-07T03:28:47.328Z,89.47
2018-04-07T03:29:47.994Z,89.67
2018-04-07T03:30:48.664Z,89.76
2018-04-07T03:31:49.328Z,89.47
2018-04-07T03:32:49.995Z,89.72
2018-04-07T03:33:50.670Z,89.86
2018-04-07T03:34:51.338Z,89.76
2018-04-07T03:35:52.009Z,89.67
2018-04-07T03:36:52.678Z,89.47
2018-04-07T03:37:53.343Z,89.86
2018-04-07T03:38:54.010Z,89.47
2018-04-07T03:39:54.676Z,89.47
2018-04-07T03:40:55.343Z,89.86
2018-04-07T03:41:56.010Z,89.67
2018-04-07T03:42:56.677Z,89.72
2018-04-07T03:43:57.348Z,89.62
2018-04-07T03:44:58.015Z,89.43
2018-04-07T03:45:58.685Z,89.90
2018-04-07T03:46:59.351Z,90.00
2018-04-07T03:48:00.030Z,90.19
2018-04-07T03:49:00.694Z,90.28
2018-04-07T03:50:01.367Z,90.19
2018-04-07T03:51:02.034Z,90.38
2018-04-07T03:52:02.700Z,90.19
2018-04-07T03:53:03.368Z,90.09
2018-04-07T03:54:04.044Z,90.28
2018-04-07T03:55:04.716Z,90.28
2018-04-07T03:56:05.385Z,90.42
2018-04-07T03:57:06.054Z,90.19
2018-04-07T03:58:06.724Z,90.09
2018-04-07T03:59:07.395Z,90.00
2018-04-07T04:00:08.061Z,90.47
2018-04-07T04:01:08.739Z,90.00
2018-04-07T04:02:09.405Z,90.09
2018-04-07T04:03:10.081Z,90.28
2018-04-07T04:04:10.765Z,90.57
2018-04-07T04:05:11.436Z,90.47
2018-04-07T04:06:12.105Z,90.47
2018-04-07T04:07:12.773Z,90.66
2018-04-07T04:08:13.440Z,90.85
2018-04-07T04:09:14.105Z,90.19
2018-04-07T04:10:14.769Z,89.90
2018-04-07T04:11:15.436Z,90.19
2018-04-07T04:12:16.112Z,90.09
2018-04-07T04:13:16.780Z,90.47
2018-04-07T04:14:17.446Z,90.38
2018-04-07T04:15:18.114Z,90.38
2018-04-07T04:16:18.783Z,91.04
2018-04-07T04:17:19.449Z,90.19
2018-04-07T04:18:20.123Z,90.66
2018-04-07T04:19:20.787Z,90.66
2018-04-07T04:20:21.454Z,90.76
2018-04-07T04:21:22.120Z,90.85
2018-04-07T04:22:22.788Z,90.85
2018-04-07T04:23:23.479Z,90.09
2018-04-07T04:24:24.123Z,90.47
2018-04-07T04:25:24.790Z,90.85
2018-04-07T04:26:25.457Z,90.85
2018-04-07T04:27:26.124Z,90.76
2018-04-07T04:28:26.792Z,90.66
2018-04-07T04:29:27.461Z,90.76
2018-04-07T04:30:28.126Z,90.57
2018-04-07T04:31:28.799Z,90.47
2018-04-07T04:32:29.467Z,91.04
2018-04-07T04:33:30.134Z,90.76
2018-04-07T04:34:30.799Z,90.38
2018-04-07T04:35:31.474Z,90.28
2018-04-07T04:36:32.145Z,90.66
2018-04-07T04:37:32.811Z,90.85
2018-04-07T04:38:33.481Z,90.76
2018-04-07T04:39:34.152Z,90.19
2018-04-07T04:40:34.837Z,90.47
2018-04-07T04:41:35.507Z,90.57
2018-04-07T04:42:36.179Z,90.85
2018-04-07T04:43:36.878Z,90.00
2018-04-07T04:44:37.513Z,90.19
2018-04-07T04:45:38.182Z,90.19
2018-04-07T04:46:38.860Z,90.38
2018-04-07T04:47:39.539Z,90.09
2018-04-07T04:48:40.205Z,90.00
2018-04-07T04:49:40.875Z,90.47
2018-04-07T04:50:41.591Z,90.76
2018-04-07T04:51:42.228Z,90.28
2018-04-07T04:52:42.900Z,90.76
2018-04-07T04:53:43.571Z,90.57
2018-04-07T04:54:44.242Z,90.28
2018-04-07T04:55:44.921Z,90.57
2018-04-07T04:56:45.592Z,90.09
2018-04-07T04:57:46.262Z,90.19
2018-04-07T04:58:46.931Z,90.57
2018-04-07T04:59:47.602Z,90.76
2018-04-07T05:00:48.276Z,90.66
2018-04-07T05:01:48.948Z,90.09
2018-04-07T05:02:49.617Z,90.85
2018-04-07T05:03:50.289Z,90.00
2018-04-07T05:04:50.956Z,90.38
2018-04-07T05:05:51.627Z,90.57
2018-04-07T05:06:52.303Z,90.57
2018-04-07T05:07:52.969Z,90.00
2018-04-07T05:08:53.639Z,90.66
2018-04-07T05:09:54.314Z,90.66
2018-04-07T05:10:54.985Z,90.57
2018-04-07T05:11:55.657Z,90.85
2018-04-07T05:12:56.326Z,90.19
2018-04-07T05:13:57.000Z,90.00
2018-04-07T05:14:57.672Z,90.47
2018-04-07T05:15:58.347Z,90.09
2018-04-07T05:16:59.014Z,90.00
2018-04-07T05:17:59.688Z,89.90
2018-04-07T05:19:00.360Z,90.38
2018-04-07T05:20:01.030Z,90.38
2018-04-07T05:21:01.705Z,90.09
2018-04-07T05:22:02.373Z,90.66
2018-04-07T05:23:03.045Z,90.76
2018-04-07T05:24:03.723Z,90.09
2018-04-07T05:25:04.405Z,90.85
2018-04-07T05:26:05.074Z,90.38
2018-04-07T05:27:05.743Z,90.66
2018-04-07T05:28:06.416Z,90.47
2018-04-07T05:29:07.095Z,90.28
2018-04-07T05:30:07.760Z,90.57
2018-04-07T05:31:08.434Z,90.28
2018-04-07T05:32:09.102Z,90.28
2018-04-07T05:33:09.771Z,89.72
2018-04-07T05:34:10.443Z,89.43
2018-04-07T05:35:11.110Z,89.72
2018-04-07T05:36:11.779Z,89.43
2018-04-07T05:37:12.453Z,89.72
2018-04-07T05:38:13.120Z,89.72
2018-04-07T05:39:13.797Z,89.53
2018-04-07T05:40:14.469Z,89.43
2018-04-07T05:41:15.144Z,89.62
2018-04-07T05:42:15.814Z,89.33
2018-04-07T05:43:16.486Z,89.43
2018-04-07T05:44:17.158Z,89.14
2018-04-07T05:45:17.828Z,89.81
2018-04-07T05:46:18.502Z,89.14
2018-04-07T05:47:19.176Z,89.81
2018-04-07T05:48:19.847Z,89.05
2018-04-07T05:49:20.520Z,88.95
2018-04-07T05:50:21.199Z,89.33
2018-04-07T05:51:21.861Z,89.43
2018-04-07T05:52:22.533Z,88.95
2018-04-07T05:53:23.204Z,89.24
2018-04-07T05:54:23.876Z,89.09
2018-04-07T05:55:24.548Z,88.90
2018-04-07T05:56:25.220Z,89.14
2018-04-07T05:57:25.892Z,88.53
2018-04-07T05:58:26.565Z,88.76
2018-04-07T05:59:27.236Z,88.71
2018-04-07T06:00:27.912Z,88.43
2018-04-07T06:01:28.585Z,88.81
2018-04-07T06:02:29.262Z,88.90
2018-04-07T06:03:29.934Z,88.53
2018-04-07T06:04:30.615Z,88.24
2018-04-07T06:05:31.293Z,88.05
2018-04-07T06:06:31.964Z,88.15
2018-04-07T06:07:32.633Z,87.95
2018-04-07T06:08:33.306Z,87.95
2018-04-07T06:09:33.975Z,88.15
2018-04-07T06:10:34.646Z,88.05
2018-04-07T06:11:35.318Z,88.15
2018-04-07T06:12:35.990Z,87.76
2018-04-07T06:13:36.662Z,87.57
2018-04-07T06:14:37.340Z,87.86
2018-04-07T06:15:38.015Z,87.01
2018-04-07T06:16:38.690Z,87.29
2018-04-07T06:17:39.360Z,87.48
2018-04-07T06:18:40.032Z,87.29
2018-04-07T06:19:40.703Z,87.48
2018-04-07T06:20:41.376Z,87.29
2018-04-07T06:21:42.054Z,87.38
2018-04-07T06:22:42.725Z,87.10
2018-04-07T06:23:43.397Z,87.38
2018-04-07T06:24:44.067Z,87.38
2018-04-07T06:25:44.739Z,86.82
2018-04-07T06:26:45.406Z,86.91
2018-04-07T06:27:46.078Z,86.82
2018-04-07T06:28:46.753Z,86.91
2018-04-07T06:29:47.422Z,86.72
2018-04-07T06:30:48.094Z,86.43
2018-04-07T06:31:48.772Z,86.24
2018-04-07T06:32:49.440Z,86.43
2018-04-07T06:33:50.119Z,86.19
2018-04-07T06:34:50.839Z,86.05
2018-04-07T06:35:51.448Z,85.86
2018-04-07T06:36:52.125Z,86.00
2018-04-07T06:37:52.793Z,85.91
2018-04-07T06:38:53.463Z,85.91
2018-04-07T06:39:54.134Z,85.53
2018-04-07T06:40:54.806Z,85.15
2018-04-07T06:41:55.496Z,85.24
2018-04-07T06:42:56.149Z,84.95
2018-04-07T06:43:56.828Z,84.86
2018-04-07T06:44:57.503Z,84.95
2018-04-07T06:45:58.174Z,84.58
2018-04-07T06:46:58.856Z,84.67
2018-04-07T06:47:59.561Z,84.10
2018-04-07T06:49:00.201Z,83.82
2018-04-07T06:50:00.884Z,83.44
2018-04-07T06:51:01.559Z,83.53
2018-04-07T06:52:02.228Z,83.34
2018-04-07T06:53:02.910Z,83.15
2018-04-07T06:54:03.579Z,82.96
2018-04-07T06:55:04.283Z,82.49
2018-04-07T06:56:04.921Z,82.58
2018-04-07T06:57:05.604Z,82.53
2018-04-07T06:58:06.282Z,82.53
2018-04-07T06:59:06.950Z,82.24
2018-04-07T07:00:07.624Z,81.86
2018-04-07T07:01:08.296Z,82.01
2018-04-07T07:02:08.972Z,81.96
2018-04-07T07:03:09.647Z,81.86
2018-04-07T07:04:10.324Z,82.34
2018-04-07T07:05:10.995Z,82.05
2018-04-07T07:06:11.666Z,82.15
2018-04-07T07:07:12.339Z,81.35
2018-04-07T07:08:13.019Z,81.67
2018-04-07T07:09:13.692Z,81.48
2018-04-07T07:10:14.366Z,81.86
2018-04-07T07:11:15.036Z,81.67
2018-04-07T07:12:15.718Z,80.82
2018-04-07T07:13:16.396Z,80.24
2018-04-07T07:14:17.077Z,80.82
2018-04-07T07:15:17.748Z,80.15
2018-04-07T07:16:18.433Z,80.05
2018-04-07T07:17:19.107Z,80.91
2018-04-07T07:18:19.790Z,80.72
2018-04-07T07:19:20.444Z,80.63
2018-04-07T07:20:21.070Z,80.91
2018-04-07T07:21:21.793Z,80.82
2018-04-07T07:22:22.464Z,80.82
2018-04-07T07:23:23.137Z,80.15
2018-04-07T07:24:23.810Z,80.15
2018-04-07T07:25:24.483Z,80.34
2018-04-07T07:26:25.154Z,80.24
2018-04-07T07:27:25.827Z,80.15
2018-04-07T07:28:26.499Z,79.96
2018-04-07T07:29:27.170Z,80.29
2018-04-07T07:30:27.843Z,79.81
2018-04-07T07:31:28.523Z,79.91
2018-04-07T07:32:29.242Z,80.19
2018-04-07T07:33:29.875Z,80.00
2018-04-07T07:34:30.543Z,79.72
2018-04-07T07:35:31.216Z,78.57
2018-04-07T07:36:31.893Z,78.57
2018-04-07T07:37:32.563Z,78.77
2018-04-07T07:38:33.235Z,78.67
2018-04-07T07:39:33.910Z,78.48
2018-04-07T07:40:34.582Z,78.77
2018-04-07T07:41:35.261Z,79.14
2018-04-07T07:42:35.940Z,79.05
2018-04-07T07:43:36.614Z,78.10
2018-04-07T07:44:37.286Z,77.91
2018-04-07T07:45:37.958Z,77.81
2018-04-07T07:46:38.633Z,78.29
2018-04-07T07:47:39.303Z,78.19
2018-04-07T07:48:39.977Z,77.91
2018-04-07T07:49:40.646Z,77.34
2018-04-07T07:50:41.327Z,77.24
2018-04-07T07:51:42.003Z,77.62
2018-04-07T07:52:42.671Z,77.15
2018-04-07T07:53:43.344Z,77.43
2018-04-07T07:54:44.015Z,77.34
2018-04-07T07:55:44.687Z,77.43
2018-04-07T07:56:45.364Z,77.85
2018-04-07T07:57:46.041Z,78.04
2018-04-07T07:58:46.743Z,77.76
2018-04-07T07:59:47.424Z,76.90
2018-04-07T08:00:48.102Z,77.28
2018-04-07T08:01:48.780Z,76.67
2018-04-07T08:02:49.462Z,77.37
2018-04-07T08:03:50.136Z,77.56
2018-04-07T08:04:50.826Z,77.76
2018-04-07T08:05:51.500Z,78.14
2018-04-07T08:06:52.179Z,78.04
2018-04-07T08:07:52.860Z,78.23
2018-04-07T08:08:53.543Z,77.47
2018-04-07T08:09:54.215Z,77.28
2018-04-07T08:10:54.888Z,77.28
2018-04-07T08:11:55.571Z,76.61
2018-04-07T08:12:56.243Z,77.00
2018-04-07T08:13:56.916Z,77.00
2018-04-07T08:14:57.593Z,76.90
2018-04-07T08:15:58.265Z,76.71
2018-04-07T08:16:58.936Z,76.42
2018-04-07T08:17:59.619Z,76.81
2018-04-07T08:19:00.340Z,77.09
2018-04-07T08:20:00.971Z,76.94
2018-04-07T08:21:01.645Z,76.56
2018-04-07T08:22:02.318Z,76.46
2018-04-07T08:23:02.994Z,76.37
2018-04-07T08:24:03.668Z,76.65
2018-04-07T08:25:04.344Z,76.94
2018-04-07T08:26:05.024Z,77.32
2018-04-07T08:27:05.698Z,77.13
2018-04-07T08:28:06.371Z,76.37
2018-04-07T08:29:07.057Z,76.65
2018-04-07T08:30:07.728Z,76.46
2018-04-07T08:31:08.399Z,76.56
2018-04-07T08:32:09.110Z,76.56
2018-04-07T08:33:09.781Z,76.21
2018-04-07T08:34:10.455Z,76.08
2018-04-07T08:35:11.130Z,76.08
2018-04-07T08:36:11.803Z,75.89
2018-04-07T08:37:14.863Z,76.03
2018-04-07T08:38:13.161Z,76.50
2018-04-07T08:39:13.840Z,75.84
2018-04-07T08:40:14.516Z,76.12
2018-04-07T08:41:15.188Z,76.12
2018-04-07T08:42:15.869Z,75.45
2018-04-07T08:43:16.545Z,75.36
2018-04-07T08:44:17.221Z,75.07
2018-04-07T08:45:17.897Z,75.45
2018-04-07T08:46:18.569Z,75.84
2018-04-07T08:47:19.244Z,75.93
2018-04-07T08:48:19.928Z,75.55
2018-04-07T08:49:20.603Z,74.98
2018-04-07T08:50:21.278Z,74.98
2018-04-07T08:51:21.953Z,75.36
2018-04-07T08:52:22.628Z,75.16
2018-04-07T08:53:23.320Z,75.55
2018-04-07T08:54:23.979Z,75.55
2018-04-07T08:55:24.663Z,74.88
2018-04-07T08:56:25.336Z,75.07
2018-04-07T08:57:26.012Z,75.26
2018-04-07T08:58:26.690Z,75.36
2018-04-07T08:59:27.363Z,74.60
2018-04-07T09:00:28.052Z,75.30
2018-04-07T09:01:28.728Z,75.49
2018-04-07T09:02:29.406Z,75.49
2018-04-07T09:03:30.079Z,75.49
2018-04-07T09:04:30.769Z,74.54
2018-04-07T09:05:31.446Z,74.54
2018-04-07T09:06:32.115Z,75.30
2018-04-07T09:07:32.790Z,75.59
2018-04-07T09:08:33.467Z,74.73
2018-04-07T09:09:34.149Z,75.01
2018-04-07T09:10:34.820Z,75.49
2018-04-07T09:11:35.495Z,74.82
2018-04-07T09:12:36.185Z,74.92
2018-04-07T09:13:36.866Z,75.30
2018-04-07T09:14:37.541Z,74.86
2018-04-07T09:15:38.228Z,75.01
2018-04-07T09:16:38.901Z,75.34
2018-04-07T09:17:39.583Z,74.96
2018-04-07T09:18:40.258Z,74.19
2018-04-07T09:19:40.930Z,74.48
2018-04-07T09:20:41.605Z,74.77
2018-04-07T09:21:42.281Z,74.86
2018-04-07T09:22:42.958Z,74.29
2018-04-07T09:23:43.634Z,74.67
2018-04-07T09:24:44.314Z,74.19
2018-04-07T09:25:45.013Z,74.19
2018-04-07T09:26:45.672Z,74.01
2018-04-07T09:27:46.345Z,74.10
2018-04-07T09:28:47.020Z,74.57
2018-04-07T09:29:47.697Z,74.29
2018-04-07T09:30:48.380Z,73.72
2018-04-07T09:31:49.056Z,73.33
2018-04-07T09:32:49.744Z,73.62
2018-04-07T09:33:50.417Z,72.86
2018-04-07T09:34:51.092Z,72.67
2018-04-07T09:35:51.768Z,73.18
2018-04-07T09:36:52.444Z,72.99
2018-04-07T09:37:53.122Z,73.75
2018-04-07T09:38:53.804Z,73.18
2018-04-07T09:39:54.480Z,72.89
2018-04-07T09:40:55.158Z,72.61
2018-04-07T09:41:55.840Z,72.32
2018-04-07T09:42:56.516Z,72.51
2018-04-07T09:43:57.195Z,73.47
2018-04-07T09:44:57.869Z,73.37
2018-04-07T09:45:58.552Z,73.66
2018-04-07T09:46:59.228Z,72.93
2018-04-07T09:47:59.901Z,72.32
2018-04-07T09:49:00.576Z,71.84
2018-04-07T09:50:01.256Z,72.45
2018-04-07T09:51:01.933Z,72.83
2018-04-07T09:52:02.610Z,72.17
2018-04-07T09:53:03.284Z,72.74
2018-04-07T09:54:03.965Z,73.03
2018-04-07T09:55:04.637Z,72.45
2018-04-07T09:56:05.322Z,71.50
2018-04-07T09:57:06.000Z,72.36
2018-04-07T09:58:06.674Z,71.88
2018-04-07T09:59:07.351Z,71.41
2018-04-07T10:00:08.028Z,71.21
2018-04-07T10:01:08.701Z,70.83
2018-04-07T10:02:09.378Z,70.92
2018-04-07T10:03:10.053Z,70.73
2018-04-07T10:04:10.735Z,70.92
2018-04-07T10:05:11.447Z,71.63
2018-04-07T10:06:12.087Z,72.49
2018-04-07T10:07:12.761Z,71.53
2018-04-07T10:08:13.439Z,71.92
2018-04-07T10:09:14.128Z,71.92
2018-04-07T10:10:14.807Z,70.01
2018-04-07T10:11:15.479Z,70.20
2018-04-07T10:12:16.157Z,70.67
2018-04-07T10:13:16.831Z,69.91
2018-04-07T10:14:17.506Z,70.39
2018-04-07T10:15:18.183Z,70.01
2018-04-07T10:16:18.857Z,69.72
2018-04-07T10:17:19.542Z,70.20
2018-04-07T10:18:20.214Z,71.19
2018-04-07T10:19:20.896Z,70.90
2018-04-07T10:20:21.572Z,69.27
2018-04-07T10:21:22.250Z,69.18
2018-04-07T10:22:22.927Z,69.18
2018-04-07T10:23:23.602Z,69.47
2018-04-07T10:24:24.283Z,69.27
2018-04-07T10:25:24.971Z,69.09
2018-04-07T10:26:25.647Z,69.50
2018-04-07T10:27:26.334Z,70.46
2018-04-07T10:28:27.016Z,70.65
2018-04-07T10:29:27.695Z,69.02
2018-04-07T10:30:28.373Z,68.26
2018-04-07T10:31:29.051Z,68.45
2018-04-07T10:32:29.725Z,67.88
2018-04-07T10:33:30.399Z,68.84
2018-04-07T10:34:31.090Z,68.16
2018-04-07T10:35:31.769Z,68.07
2018-04-07T10:36:32.445Z,68.35
2018-04-07T10:37:33.161Z,68.64
2018-04-07T10:38:33.810Z,68.35
2018-04-07T10:39:34.491Z,68.29
2018-04-07T10:40:35.166Z,68.29
2018-04-07T10:41:35.844Z,68.39
2018-04-07T10:42:36.520Z,67.49
2018-04-07T10:43:37.196Z,68.29
2018-04-07T10:44:37.873Z,68.68
2018-04-07T10:45:38.554Z,68.77
2018-04-07T10:46:39.231Z,68.49
2018-04-07T10:47:39.916Z,68.49
2018-04-07T10:48:40.591Z,68.39
2018-04-07T10:49:41.286Z,68.49
2018-04-07T10:50:41.963Z,68.10
2018-04-07T10:51:42.636Z,68.20
2018-04-07T10:52:43.348Z,67.37
2018-04-07T10:53:44.005Z,67.37
2018-04-07T10:54:44.680Z,67.56
2018-04-07T10:55:45.354Z,67.47
2018-04-07T10:56:46.033Z,66.99
2018-04-07T10:57:46.716Z,67.37
2018-04-07T10:58:47.395Z,67.85
2018-04-07T10:59:48.079Z,68.33
2018-04-07T11:00:48.763Z,67.08
2018-04-07T11:01:49.444Z,67.41
2018-04-07T11:02:50.117Z,67.31
2018-04-07T11:03:50.796Z,66.93
2018-04-07T11:04:51.478Z,67.60
2018-04-07T11:05:52.159Z,67.41
2018-04-07T11:06:52.836Z,67.21
2018-04-07T11:07:53.514Z,66.45
2018-04-07T11:08:54.189Z,66.74
2018-04-07T11:09:54.866Z,65.71
2018-04-07T11:10:55.551Z,66.25
2018-04-07T11:11:56.227Z,66.86
2018-04-07T11:12:56.905Z,65.58
2018-04-07T11:13:57.584Z,65.33
2018-04-07T11:14:58.259Z,65.62
2018-04-07T11:15:58.934Z,65.05
2018-04-07T11:16:59.619Z,65.23
2018-04-07T11:18:00.298Z,65.05
2018-04-07T11:19:00.979Z,65.62
2018-04-07T11:20:01.657Z,65.05
2018-04-07T11:21:02.333Z,65.26
2018-04-07T11:22:03.015Z,64.40
2018-04-07T11:23:03.694Z,64.50
2018-04-07T11:24:04.381Z,64.79
2018-04-07T11:25:05.059Z,64.50
2018-04-07T11:26:05.738Z,64.31
2018-04-07T11:27:06.421Z,63.54
2018-04-07T11:28:07.102Z,64.12
2018-04-07T11:29:07.787Z,63.26
2018-04-07T11:30:08.470Z,63.76
2018-04-07T11:31:09.150Z,62.81
2018-04-07T11:32:09.835Z,62.81
2018-04-07T11:33:10.513Z,61.56
2018-04-07T11:34:11.194Z,60.35
2018-04-07T11:35:11.877Z,61.36
2018-04-07T11:36:12.563Z,57.87
2018-04-07T11:37:13.241Z,55.45
2018-04-07T11:38:13.926Z,52.59
2018-04-07T11:39:14.614Z,49.34
2018-04-07T11:40:15.298Z,45.25
2018-04-07T11:41:15.979Z,41.84
2018-04-07T11:42:16.686Z,39.51
2018-04-07T11:43:17.367Z,39.12
2018-04-07T11:44:18.054Z,39.45
2018-04-07T11:45:18.734Z,36.93
2018-04-07T11:46:19.419Z,36.44
2018-04-07T11:47:20.106Z,35.82
2018-04-07T11:48:20.788Z,35.70
2018-04-07T11:49:21.481Z,34.61
2018-04-07T11:50:22.160Z,32.62
2018-04-07T11:51:22.854Z,31.52
2018-04-07T11:52:23.540Z,29.22
2018-04-07T11:53:24.225Z,30.22
2018-04-07T11:54:24.914Z,29.08
2018-04-07T11:55:25.600Z,28.74
2018-04-07T11:56:26.290Z,29.16
2018-04-07T11:57:26.974Z,28.16
2018-04-07T11:58:27.660Z,28.92
2018-04-07T11:59:28.345Z,30.88
2018-04-07T12:00:29.040Z,31.40
2018-04-07T12:01:29.734Z,30.55
2018-04-07T12:02:30.481Z,29.24
2018-04-07T12:03:31.106Z,27.92
2018-04-07T12:04:31.800Z,25.74
2018-04-07T12:05:32.495Z,25.95
2018-04-07T12:06:33.185Z,25.77
2018-04-07T12:07:33.895Z,26.78
2018-04-07T12:08:34.592Z,26.40
2018-04-07T12:09:35.282Z,25.13
2018-04-07T12:10:35.968Z,23.62
2018-04-07T12:11:36.697Z,24.69
2018-04-07T12:12:37.348Z,24.28
2018-04-07T12:13:38.038Z,23.79
2018-04-07T12:14:38.729Z,23.88
2018-04-07T12:15:39.418Z,22.11
2018-04-07T12:16:40.108Z,21.61
2018-04-07T12:17:40.798Z,19.73
2018-04-07T12:18:41.494Z,21.02
2018-04-07T12:19:42.180Z,20.97
2018-04-07T12:20:42.867Z,19.92
2018-04-07T12:21:43.558Z,21.32
2018-04-07T12:22:44.247Z,21.93
2018-04-07T12:23:44.956Z,22.03
2018-04-07T12:24:45.651Z,20.81
2018-04-07T12:25:46.342Z,20.05
2018-04-07T12:26:47.039Z,19.45
2018-04-07T12:27:47.730Z,19.73
2018-04-07T12:28:48.425Z,19.52
2018-04-07T12:29:49.115Z,18.10
2018-04-07T12:30:49.807Z,18.19
2018-04-07T12:31:50.494Z,18.97
2018-04-07T12:32:51.189Z,18.71
2018-04-07T12:33:51.883Z,17.65
2018-04-07T12:34:52.577Z,17.19
2018-04-07T12:35:53.267Z,16.21
2018-04-07T12:36:53.968Z,15.42
2018-04-07T12:37:54.660Z,14.94
2018-04-07T12:38:55.359Z,14.05
2018-04-07T12:39:56.086Z,14.36
2018-04-07T12:40:56.778Z,14.28
2018-04-07T12:41:57.475Z,17.03
2018-04-07T12:42:58.169Z,17.25
2018-04-07T12:43:58.859Z,16.41
2018-04-07T12:44:59.550Z,14.25
2018-04-07T12:46:00.247Z,14.22
2018-04-07T12:47:00.944Z,13.96
2018-04-07T12:48:01.638Z,14.18
2018-04-07T12:49:02.337Z,13.89
2018-04-07T12:50:03.027Z,13.62
2018-04-07T12:51:03.741Z,13.48
2018-04-07T12:52:04.432Z,13.18
2018-04-07T12:53:05.128Z,13.24
2018-04-07T12:54:05.832Z,13.28
2018-04-07T12:55:06.524Z,14.12
2018-04-07T12:56:07.223Z,13.82
2018-04-07T12:57:07.926Z,13.72
2018-04-07T12:58:08.625Z,13.10
2018-04-07T12:59:09.326Z,12.43
2018-04-07T13:00:10.021Z,12.40
2018-04-07T13:01:10.757Z,11.65